Time,TemperatureF,DewpointF,PressureIn,WindDirection,WindDirectionDegrees,WindSpeedMPH,WindSpeedGustMPH,Humidity,HourlyPrecipIn,Conditions,Clouds,dailyrainin,SoftwareType,DateUTC
2013-09-19 00:12:00,54.0,43.0,29.89,WSW,256,0.0,0.0,66,0.00,,,0.10,,2013-09-19 06:12:00,
2013-09-19 00:22:00,53.0,42.0,29.89,WSW,256,2.0,7.0,66,0.00,,,0.03,,2013-09-19 06:22:00,
2013-09-19 00:43:00,55.0,41.0,29.90,WSW,256,0.0,3.0,58,0.00,,,0.03,,2013-09-19 06:43:00,
2013-09-19 00:52:00,55.0,42.0,29.90,WSW,256,0.0,6.0,61,0.00,,,0.03,,2013-09-19 06:52:00,
2013-09-19 01:11:00,54.0,43.0,29.90,WSW,256,0.0,3.0,65,0.00,,,0.03,,2013-09-19 07:11:00,
2013-09-19 01:21:00,53.0,43.0,29.90,WSW,256,0.0,1.0,68,0.00,,,0.03,,2013-09-19 07:21:00,
2013-09-19 01:42:00,52.0,43.0,29.91,WSW,256,0.0,0.0,71,0.00,,,0.03,,2013-09-19 07:42:00,
2013-09-19 01:52:00,51.0,43.0,29.91,WSW,256,0.0,0.0,75,0.00,,,0.03,,2013-09-19 07:52:00,
2013-09-19 02:11:00,50.0,43.0,29.91,WSW,256,0.0,0.0,78,0.00,,,0.03,,2013-09-19 08:11:00,
2013-09-19 02:21:00,49.0,43.0,29.92,WSW,256,0.0,4.0,79,0.00,,,0.03,,2013-09-19 08:21:00,
2013-09-19 02:52:00,48.0,42.0,29.93,WSW,256,0.0,0.0,80,0.00,,,0.03,,2013-09-19 08:52:00,
2013-09-19 03:11:00,47.0,41.0,29.93,WSW,256,0.0,0.0,81,0.00,,,0.03,,2013-09-19 09:11:00,
2013-09-19 03:21:00,46.0,41.0,29.94,WSW,256,0.0,0.0,83,0.00,,,0.03,,2013-09-19 09:21:00,
2013-09-19 03:53:00,46.0,42.0,29.95,WSW,256,0.0,0.0,85,0.00,,,0.03,,2013-09-19 09:53:00,
2013-09-19 04:12:00,46.0,41.0,29.96,WSW,255,0.0,0.0,83,0.00,,,0.03,,2013-09-19 10:12:00,
2013-09-19 04:23:00,45.0,40.0,29.96,WSW,255,0.0,0.0,84,0.00,,,0.03,,2013-09-19 10:23:00,
2013-09-19 04:42:00,45.0,41.0,29.96,WSW,256,0.0,0.0,85,0.00,,,0.03,,2013-09-19 10:42:00,
2013-09-19 04:52:00,44.0,40.0,29.97,WSW,256,0.0,0.0,87,0.00,,,0.03,,2013-09-19 10:52:00,
2013-09-19 05:11:00,44.0,40.0,29.98,WSW,255,0.0,1.0,86,0.00,,,0.03,,2013-09-19 11:11:00,
2013-09-19 05:22:00,44.0,40.0,29.98,WSW,256,1.0,5.0,85,0.00,,,0.03,,2013-09-19 11:22:00,
2013-09-19 05:42:00,44.0,40.0,29.99,WSW,256,2.0,7.0,85,0.00,,,0.03,,2013-09-19 11:42:00,
2013-09-19 05:52:00,44.0,40.0,29.99,WSW,256,2.0,5.0,86,0.00,,,0.03,,2013-09-19 11:52:00,
2013-09-19 06:11:00,44.0,40.0,30.00,WSW,255,0.0,8.0,86,0.00,,,0.03,,2013-09-19 12:11:00,
2013-09-19 06:21:00,44.0,40.0,30.01,WSW,256,2.0,4.0,85,0.00,,,0.03,,2013-09-19 12:21:00,
2013-09-19 06:52:00,44.0,40.0,30.02,WSW,255,0.0,0.0,87,0.00,,,0.03,,2013-09-19 12:52:00,
2013-09-19 07:11:00,43.0,40.0,30.03,WSW,256,0.0,4.0,88,0.00,,,0.03,,2013-09-19 13:11:00,
2013-09-19 07:21:00,43.0,40.0,30.03,WSW,255,0.0,1.0,89,0.00,,,0.03,,2013-09-19 13:21:00,
2013-09-19 07:42:00,43.0,40.0,30.04,WSW,256,0.0,0.0,89,0.00,,,0.03,,2013-09-19 13:42:00,
2013-09-19 07:52:00,43.0,40.0,30.04,WSW,256,0.0,0.0,90,0.00,,,0.03,,2013-09-19 13:52:00,
2013-09-19 08:22:00,44.0,41.0,30.05,WSW,256,0.0,0.0,88,0.00,,,0.02,,2013-09-19 14:22:00,
2013-09-19 08:52:00,48.0,44.0,30.06,WSW,256,0.0,0.0,85,0.00,,,0.02,,2013-09-19 14:52:00,
2013-09-19 09:21:00,53.0,42.0,30.07,WSW,256,0.0,3.0,66,0.00,,,0.02,,2013-09-19 15:21:00,
2013-09-19 09:43:00,54.0,43.0,30.07,WSW,256,0.0,4.0,65,0.00,,,0.02,,2013-09-19 15:43:00,
2013-09-19 09:53:00,53.0,42.0,30.08,WSW,256,0.0,3.0,65,0.00,,,0.02,,2013-09-19 15:53:00,
2013-09-19 10:03:00,53.0,42.0,30.08,WSW,256,0.0,3.0,65,0.00,,,0.02,,2013-09-19 16:03:00,
2013-09-19 10:23:00,55.0,41.0,30.08,WSW,256,0.0,4.0,59,0.00,,,0.02,,2013-09-19 16:23:00,
2013-09-19 10:43:00,56.0,41.0,30.09,WSW,256,0.0,2.0,56,0.00,,,0.02,,2013-09-19 16:43:00,
2013-09-19 10:52:00,56.0,41.0,30.09,WSW,256,1.0,5.0,57,0.00,,,0.02,,2013-09-19 16:52:00,
2013-09-19 11:12:00,57.0,41.0,30.08,WSW,256,0.0,1.0,55,0.00,,,0.02,,2013-09-19 17:12:00,
2013-09-19 11:23:00,58.0,39.0,30.09,WNW,302,4.0,13.0,50,0.00,,,0.02,,2013-09-19 17:23:00,
2013-09-19 11:53:00,57.0,40.0,30.09,WNW,300,4.0,10.0,52,0.00,,,0.02,,2013-09-19 17:53:00,
2013-09-19 12:11:00,58.0,40.0,30.08,WNW,291,4.0,14.0,51,0.00,,,0.02,,2013-09-19 18:11:00,
2013-09-19 12:22:00,58.0,40.0,30.08,West,279,1.0,11.0,52,0.00,,,0.02,,2013-09-19 18:22:00,
2013-09-19 12:42:00,58.0,39.0,30.08,NNE,19,1.0,8.0,49,0.00,,,0.02,,2013-09-19 18:42:00,
2013-09-19 12:52:00,59.0,40.0,30.08,NNE,19,1.0,7.0,49,0.00,,,0.02,,2013-09-19 18:52:00,
2013-09-19 13:12:00,60.0,39.0,30.08,NNE,19,1.0,6.0,46,0.00,,,0.02,,2013-09-19 19:12:00,
2013-09-19 13:21:00,60.0,38.0,30.07,WNW,287,5.0,11.0,44,0.00,,,0.02,,2013-09-19 19:21:00,
2013-09-19 13:52:00,61.0,37.0,30.07,WNW,296,4.0,13.0,41,0.00,,,0.02,,2013-09-19 19:52:00,
2013-09-19 14:12:00,61.0,36.0,30.06,NW,321,10.0,16.0,40,0.00,,,0.02,,2013-09-19 20:12:00,
2013-09-19 14:21:00,61.0,37.0,30.06,WNW,298,6.0,14.0,41,0.00,,,0.02,,2013-09-19 20:21:00,
2013-09-19 14:42:00,62.0,40.0,30.06,WNW,302,2.0,8.0,44,0.00,,,0.02,,2013-09-19 20:42:00,
2013-09-19 14:52:00,63.0,38.0,30.06,WNW,302,5.0,10.0,39,0.00,,,0.02,,2013-09-19 20:52:00,
2013-09-19 15:11:00,63.0,38.0,30.06,WNW,292,6.0,13.0,39,0.00,,,0.02,,2013-09-19 21:11:00,
2013-09-19 15:22:00,62.0,37.0,30.06,West,280,6.0,12.0,39,0.00,,,0.02,,2013-09-19 21:22:00,
2013-09-19 15:44:00,63.0,37.0,30.06,WNW,290,6.0,12.0,38,0.00,,,0.02,,2013-09-19 21:44:00,
2013-09-19 15:55:00,63.0,37.0,30.06,WNW,294,6.0,12.0,38,0.00,,,0.02,,2013-09-19 21:55:00,
2013-09-19 16:24:00,63.0,36.0,30.05,WNW,294,4.0,10.0,36,0.00,,,0.02,,2013-09-19 22:24:00,
2013-09-19 16:53:00,64.0,37.0,30.05,WNW,298,6.0,13.0,36,0.00,,,0.02,,2013-09-19 22:53:00,
2013-09-19 17:12:00,64.0,37.0,30.04,WNW,298,3.0,8.0,36,0.00,,,0.02,,2013-09-19 23:12:00,
2013-09-19 17:22:00,64.0,37.0,30.05,WNW,298,6.0,12.0,36,0.00,,,0.00,,2013-09-19 23:22:00,
2013-09-19 17:53:00,64.0,37.0,30.04,WNW,287,1.0,13.0,37,0.00,,,0.00,,2013-09-19 23:53:00,
2013-09-19 18:12:00,65.0,39.0,30.04,WNW,287,1.0,8.0,38,0.00,,,0.00,,2013-09-20 00:12:00,
2013-09-19 18:21:00,64.0,37.0,30.04,WNW,287,4.0,9.0,37,0.00,,,0.00,,2013-09-20 00:21:00,
2013-09-19 18:42:00,64.0,37.0,30.04,WNW,289,6.0,11.0,37,0.00,,,0.00,,2013-09-20 00:42:00,
2013-09-19 18:52:00,63.0,37.0,30.04,WNW,289,2.0,8.0,38,0.00,,,0.00,,2013-09-20 00:52:00,
2013-09-19 19:12:00,63.0,39.0,30.04,WNW,289,2.0,6.0,41,0.00,,,0.00,,2013-09-20 01:12:00,
2013-09-19 19:22:00,61.0,38.0,30.04,WNW,289,1.0,6.0,43,0.00,,,0.00,,2013-09-20 01:22:00,
2013-09-19 19:42:00,60.0,39.0,30.04,WNW,289,0.0,5.0,45,0.00,,,0.00,,2013-09-20 01:42:00,
2013-09-19 19:52:00,59.0,39.0,30.04,WNW,289,0.0,5.0,48,0.00,,,0.00,,2013-09-20 01:52:00,
2013-09-19 20:11:00,59.0,40.0,30.05,WNW,289,0.0,2.0,50,0.00,,,0.00,,2013-09-20 02:11:00,
2013-09-19 20:22:00,58.0,40.0,30.05,WNW,289,0.0,0.0,52,0.00,,,0.00,,2013-09-20 02:22:00,
2013-09-19 20:52:00,57.0,42.0,30.06,WNW,289,0.0,0.0,57,0.00,,,0.00,,2013-09-20 02:52:00,
2013-09-19 21:12:00,55.0,42.0,30.06,WNW,289,0.0,0.0,62,0.00,,,0.00,,2013-09-20 03:12:00,
2013-09-19 21:22:00,54.0,43.0,30.07,WNW,289,0.0,0.0,65,0.00,,,0.00,,2013-09-20 03:22:00,
2013-09-19 21:45:00,54.0,44.0,30.07,WNW,289,0.0,0.0,68,0.00,,,0.00,,2013-09-20 03:45:00,
2013-09-19 21:56:00,53.0,43.0,30.07,WNW,289,0.0,0.0,69,0.00,,,0.00,,2013-09-20 03:56:00,
2013-09-19 22:14:00,52.0,43.0,30.07,WNW,289,0.0,0.0,70,0.00,,,0.00,,2013-09-20 04:14:00,
2013-09-19 22:24:00,51.0,42.0,30.07,WNW,289,0.0,0.0,72,0.00,,,0.00,,2013-09-20 04:24:00,
2013-09-19 22:44:00,51.0,43.0,30.07,WNW,289,0.0,0.0,74,0.00,,,0.00,,2013-09-20 04:44:00,
2013-09-19 22:53:00,50.0,43.0,30.07,WNW,289,0.0,2.0,76,0.00,,,0.00,,2013-09-20 04:53:00,
2013-09-19 23:13:00,49.0,42.0,30.08,WNW,289,0.0,0.0,78,0.00,,,0.00,,2013-09-20 05:13:00,
2013-09-19 23:23:00,49.0,43.0,30.08,WNW,289,0.0,0.0,79,0.00,,,0.00,,2013-09-20 05:23:00,
2013-09-19 23:53:00,47.0,42.0,30.08,WNW,289,0.0,0.0,82,0.00,,,0.00,,2013-09-20 05:53:00,